Time;durP1;ratioP1;P1;durP2;ratioP2;P2;SDS_P1;SDS_P2;PMS_P1;PMS_P2;Temp;Humidity;BMP_temperature;BMP_pressure;BME280_temperature;BME280_humidity;BME280_pressure;Samples;Min_cycle;Max_cycle;Signal;HPM_P1;HPM_P2
2021/12/09 00:00:12;;;;;;;21.65;14.50;;;27.10;91.80;;;;;;4962551;28;20054;-52
2021/12/09 00:02:40;;;;;;;26.25;16.30;;;27.10;91.90;;;;;;4962571;28;20019;-54
2021/12/09 00:05:09;;;;;;;19.25;13.50;;;27.10;92.00;;;;;;4965571;28;20039;-53
2021/12/09 00:07:36;;;;;;;18.48;12.82;;;27.10;91.90;;;;;;4965526;28;20019;-50
2021/12/09 00:10:07;;;;;;;16.30;12.25;;;27.10;91.90;;;;;;4965736;28;20354;-50
2021/12/09 00:12:34;;;;;;;21.02;12.60;;;27.10;92.00;;;;;;4965628;28;20039;-56
2021/12/09 00:15:02;;;;;;;19.63;12.52;;;27.00;91.90;;;;;;4965638;28;20027;-50
2021/12/09 00:17:28;;;;;;;19.63;13.43;;;27.00;92.00;;;;;;4965446;28;20316;-49
2021/12/09 00:19:55;;;;;;;23.88;16.33;;;27.00;92.10;;;;;;4965477;28;20080;-50
2021/12/09 00:22:21;;;;;;;26.30;20.95;;;27.00;92.10;;;;;;4965234;28;20023;-50
2021/12/09 00:24:48;;;;;;;23.80;16.40;;;27.00;92.10;;;;;;4965016;28;20031;-50
2021/12/09 00:27:15;;;;;;;18.48;14.02;;;27.00;92.00;;;;;;4965349;28;20073;-50
2021/12/09 00:29:41;;;;;;;18.50;13.07;;;26.90;91.90;;;;;;4965369;28;20074;-50
2021/12/09 00:32:08;;;;;;;13.32;12.00;;;27.00;91.90;;;;;;4965187;28;20216;-52
2021/12/09 00:34:37;;;;;;;14.68;10.63;;;26.90;91.70;;;;;;4974167;28;20038;-51
2021/12/09 00:39:43;;;;;;;16.92;10.15;;;26.90;91.50;;;;;;4965145;28;20354;-50
2021/12/09 00:42:11;;;;;;;12.25;8.75;;;26.90;91.40;;;;;;4965237;28;20027;-50
2021/12/09 00:44:38;;;;;;;14.23;9.18;;;26.90;91.10;;;;;;4964964;28;20026;-50
2021/12/09 00:47:05;;;;;;;12.65;8.73;;;26.90;91.00;;;;;;4964826;28;20019;-53
2021/12/09 00:49:32;;;;;;;13.50;8.82;;;26.90;91.00;;;;;;4964872;28;20046;-51
2021/12/09 00:51:59;;;;;;;11.18;8.75;;;26.90;90.90;;;;;;4964984;28;20091;-50
2021/12/09 00:54:26;;;;;;;11.52;7.90;;;26.80;90.70;;;;;;4964788;28;20189;-51
2021/12/09 00:56:54;;;;;;;15.13;8.18;;;26.80;90.50;;;;;;4965083;28;20034;-50
2021/12/09 00:59:21;;;;;;;13.85;8.40;;;26.80;90.30;;;;;;4964754;28;20030;-49
2021/12/09 01:01:47;;;;;;;11.63;8.45;;;26.70;90.20;;;;;;4965248;28;20180;-50
2021/12/09 01:04:15;;;;;;;14.40;7.78;;;26.80;90.30;;;;;;4969928;28;20271;-49
2021/12/09 01:06:41;;;;;;;11.80;7.75;;;26.70;90.10;;;;;;4977865;28;20050;-50
2021/12/09 01:09:08;;;;;;;12.02;7.50;;;26.70;90.00;;;;;;4983489;28;20015;-51
2021/12/09 01:11:35;;;;;;;11.32;7.75;;;26.70;90.00;;;;;;4983450;28;20031;-49
2021/12/09 01:14:02;;;;;;;12.73;7.82;;;26.60;89.60;;;;;;4982875;28;20366;-47
2021/12/09 01:16:28;;;;;;;12.13;7.55;;;26.60;89.40;;;;;;4983847;28;20364;-51
2021/12/09 01:18:56;;;;;;;9.93;7.10;;;26.60;89.10;;;;;;4977923;28;20058;-54
2021/12/09 01:21:23;;;;;;;9.95;7.75;;;26.60;89.00;;;;;;4966828;28;20038;-50
2021/12/09 01:23:50;;;;;;;13.20;7.50;;;26.60;89.00;;;;;;4964200;28;20088;-53
2021/12/09 01:26:17;;;;;;;11.90;7.85;;;26.60;88.90;;;;;;4980381;28;20053;-50
2021/12/09 01:28:49;;;;;;;13.15;7.13;;;26.60;88.80;;;;;;4980585;28;20068;-51
2021/12/09 01:31:26;;;;;;;10.45;7.55;;;26.60;88.70;;;;;;4980182;28;20110;-50
2021/12/09 01:33:54;;;;;;;14.73;8.38;;;26.70;88.70;;;;;;4983359;28;20019;-50
2021/12/09 01:36:21;;;;;;;11.48;7.93;;;26.70;88.60;;;;;;4983371;28;20026;-50
2021/12/09 01:38:48;;;;;;;11.52;8.63;;;26.70;88.40;;;;;;4981998;28;20116;-50
2021/12/09 01:41:15;;;;;;;13.30;9.85;;;26.70;88.40;;;;;;4973040;28;20321;-53
2021/12/09 01:43:42;;;;;;;15.23;11.13;;;26.70;88.20;;;;;;4983391;28;20026;-50
2021/12/09 01:46:11;;;;;;;14.88;11.50;;;26.70;88.30;;;;;;4983527;28;20046;-50
2021/12/09 01:48:40;;;;;;;20.08;13.35;;;26.60;88.20;;;;;;4982032;28;20316;-50
2021/12/09 01:51:07;;;;;;;15.30;11.15;;;26.60;88.60;;;;;;4983038;28;20195;-53
2021/12/09 01:53:35;;;;;;;13.00;10.15;;;26.60;88.40;;;;;;4983556;28;20027;-50
2021/12/09 01:56:05;;;;;;;12.50;9.90;;;26.60;88.20;;;;;;4979558;28;20213;-50
2021/12/09 01:58:34;;;;;;;11.43;9.27;;;26.60;88.10;;;;;;4977725;28;20022;-50
2021/12/09 02:01:01;;;;;;;14.63;9.50;;;26.60;88.20;;;;;;4982075;28;20414;-50
2021/12/09 02:03:27;;;;;;;14.25;9.65;;;26.60;88.60;;;;;;4982899;28;20055;-53
2021/12/09 02:05:54;;;;;;;12.70;8.55;;;26.60;88.10;;;;;;4981479;28;20079;-51
2021/12/09 02:08:21;;;;;;;10.55;8.45;;;26.60;88.10;;;;;;4982621;28;20086;-53
2021/12/09 02:10:51;;;;;;;16.23;7.90;;;26.60;88.00;;;;;;4979790;28;20027;-52
2021/12/09 02:13:20;;;;;;;13.30;8.20;;;26.60;87.60;;;;;;4980902;28;20015;-50
2021/12/09 02:15:48;;;;;;;9.93;7.68;;;26.60;87.60;;;;;;4977257;28;20037;-52
2021/12/09 02:18:15;;;;;;;12.48;7.35;;;26.60;87.60;;;;;;4963573;28;20251;-50
2021/12/09 02:20:42;;;;;;;12.20;7.55;;;26.60;87.70;;;;;;4963313;28;20208;-50
2021/12/09 02:23:12;;;;;;;8.25;6.88;;;26.50;87.60;;;;;;5005469;28;20019;-52
2021/12/09 02:25:45;;;;;;;9.25;7.30;;;26.50;87.40;;;;;;4980439;28;20081;-50
2021/12/09 02:28:16;;;;;;;12.18;8.20;;;26.60;87.60;;;;;;4982724;28;20027;-52
2021/12/09 02:30:43;;;;;;;11.73;8.15;;;26.50;87.50;;;;;;4982985;28;20031;-50
2021/12/09 02:33:10;;;;;;;15.55;10.38;;;26.50;87.40;;;;;;4982743;28;20019;-50
2021/12/09 02:35:38;;;;;;;17.23;12.30;;;26.50;87.30;;;;;;4982430;28;20076;-50
2021/12/09 02:38:07;;;;;;;23.88;15.60;;;26.40;87.30;;;;;;4981557;28;20239;-50
2021/12/09 02:40:33;;;;;;;22.13;15.82;;;26.40;87.30;;;;;;4982855;28;20097;-50
2021/12/09 02:43:01;;;;;;;23.23;16.98;;;26.40;87.60;;;;;;4980816;28;20022;-54
2021/12/09 02:45:28;;;;;;;37.13;18.63;;;26.40;87.60;;;;;;4979598;28;20193;-44
2021/12/09 02:47:55;;;;;;;23.35;16.75;;;26.40;87.70;;;;;;4979655;28;20069;-45
2021/12/09 02:50:21;;;;;;;19.95;15.57;;;26.40;87.60;;;;;;4973057;28;20053;-46
2021/12/09 02:52:48;;;;;;;21.00;15.48;;;26.40;87.50;;;;;;4971055;28;20241;-44
2021/12/09 02:55:15;;;;;;;51.33;16.20;;;26.40;87.50;;;;;;4979542;28;20022;-50
2021/12/09 02:57:42;;;;;;;18.50;14.35;;;26.30;87.50;;;;;;4980859;28;20022;-45
2021/12/09 03:00:10;;;;;;;20.23;12.38;;;26.30;87.30;;;;;;4973116;28;20027;-45
2021/12/09 03:02:37;;;;;;;14.20;10.77;;;26.30;87.60;;;;;;4962170;28;20081;-46
2021/12/09 03:05:05;;;;;;;11.30;9.32;;;26.40;87.70;;;;;;4962558;28;20047;-49
2021/12/09 03:07:36;;;;;;;11.98;8.68;;;26.30;87.50;;;;;;4963069;28;20377;-49
2021/12/09 03:10:23;;;;;;;12.48;8.55;;;26.30;87.60;;;;;;4962892;28;20038;-53
2021/12/09 03:12:53;;;;;;;10.48;7.72;;;26.30;87.30;;;;;;4962832;28;20316;-47
2021/12/09 03:15:21;;;;;;;12.43;7.22;;;26.30;87.00;;;;;;4962895;28;20304;-47
2021/12/09 03:17:49;;;;;;;10.95;6.68;;;26.30;87.00;;;;;;4962979;28;20284;-45
2021/12/09 03:20:18;;;;;;;10.00;6.65;;;26.30;86.80;;;;;;4962906;28;20184;-48
2021/12/09 03:22:47;;;;;;;12.48;7.00;;;26.30;86.70;;;;;;4962432;28;20034;-49
2021/12/09 03:25:16;;;;;;;9.85;6.03;;;26.30;86.60;;;;;;4962774;28;20299;-45
2021/12/09 03:27:43;;;;;;;7.00;5.70;;;26.30;86.40;;;;;;4962744;28;20026;-45
2021/12/09 03:30:12;;;;;;;10.40;6.07;;;26.30;86.40;;;;;;4962766;28;20031;-47
2021/12/09 03:32:39;;;;;;;11.35;5.90;;;26.30;86.30;;;;;;4962785;28;20047;-47
2021/12/09 03:35:08;;;;;;;9.07;5.70;;;26.20;86.30;;;;;;4962841;28;20038;-45
2021/12/09 03:37:34;;;;;;;9.63;5.72;;;26.20;86.20;;;;;;4964199;28;20078;-47
2021/12/09 03:40:01;;;;;;;10.00;5.70;;;26.20;86.30;;;;;;4966183;28;20023;-53
2021/12/09 03:42:31;;;;;;;10.88;5.82;;;26.20;86.10;;;;;;4966048;28;20043;-49
2021/12/09 03:44:58;;;;;;;11.35;5.78;;;26.20;86.10;;;;;;4977298;28;20034;-46
2021/12/09 03:47:27;;;;;;;8.75;5.57;;;26.20;86.70;;;;;;4985246;28;20089;-52
2021/12/09 03:49:55;;;;;;;11.93;6.13;;;26.20;86.00;;;;;;4978589;28;20303;-49
2021/12/09 03:52:22;;;;;;;7.80;5.50;;;26.20;86.00;;;;;;4973969;28;20586;-43
2021/12/09 03:54:49;;;;;;;11.95;6.03;;;26.20;85.90;;;;;;4985056;28;20375;-49
2021/12/09 03:57:16;;;;;;;15.73;5.30;;;26.20;85.80;;;;;;4983839;28;20030;-43
2021/12/09 03:59:43;;;;;;;10.30;5.35;;;26.20;86.00;;;;;;4976047;28;20087;-47
2021/12/09 04:02:12;;;;;;;7.32;5.22;;;26.10;85.90;;;;;;4965651;28;20027;-50
2021/12/09 04:04:38;;;;;;;7.00;4.82;;;26.10;86.00;;;;;;4970659;28;20043;-50
2021/12/09 04:07:06;;;;;;;8.50;5.00;;;26.10;86.10;;;;;;4984809;28;20023;-50
2021/12/09 04:09:33;;;;;;;7.13;5.53;;;26.10;86.40;;;;;;4978896;28;20018;-45
2021/12/09 04:12:00;;;;;;;9.25;5.22;;;26.10;86.30;;;;;;4965814;28;20026;-44
2021/12/09 04:14:26;;;;;;;6.47;4.65;;;26.10;86.40;;;;;;4965357;28;20023;-47
2021/12/09 04:16:53;;;;;;;6.10;4.78;;;26.10;86.50;;;;;;4965448;28;20023;-45
2021/12/09 04:19:19;;;;;;;11.27;4.93;;;26.10;86.50;;;;;;4978035;28;20136;-50
2021/12/09 04:21:47;;;;;;;9.25;5.25;;;26.10;86.70;;;;;;4985060;28;20022;-49
2021/12/09 04:24:16;;;;;;;8.07;4.80;;;26.00;86.70;;;;;;4984553;28;20303;-52
2021/12/09 04:26:49;;;;;;;7.75;4.78;;;26.00;86.70;;;;;;4985218;28;20035;-54
2021/12/09 04:29:16;;;;;;;5.20;4.65;;;26.10;86.50;;;;;;4983491;28;20090;-53
2021/12/09 04:31:47;;;;;;;7.07;4.63;;;26.00;86.30;;;;;;4984988;28;20037;-54
2021/12/09 04:34:14;;;;;;;7.90;4.47;;;26.00;86.20;;;;;;4984603;28;20019;-56
2021/12/09 04:36:41;;;;;;;8.35;4.53;;;26.00;86.10;;;;;;4984808;28;20068;-44
2021/12/09 04:39:08;;;;;;;10.23;4.40;;;26.00;85.90;;;;;;4984494;28;20030;-43
2021/12/09 04:41:35;;;;;;;12.82;4.40;;;26.00;85.80;;;;;;4984816;28;20037;-45
2021/12/09 04:44:02;;;;;;;6.63;4.18;;;26.00;85.80;;;;;;4984144;28;20065;-48
2021/12/09 04:46:29;;;;;;;7.43;4.57;;;26.00;85.70;;;;;;4984747;28;20322;-53
2021/12/09 04:48:56;;;;;;;8.15;4.60;;;26.00;85.70;;;;;;4983360;28;20022;-48
2021/12/09 04:51:23;;;;;;;7.88;4.53;;;26.00;85.80;;;;;;4984497;28;20026;-50
2021/12/09 04:53:50;;;;;;;10.05;4.65;;;26.00;85.70;;;;;;4984215;28;20338;-53
2021/12/09 04:56:17;;;;;;;9.10;4.35;;;26.00;85.70;;;;;;4984546;28;20303;-53
2021/12/09 04:58:43;;;;;;;6.43;4.45;;;26.00;85.60;;;;;;4983901;28;20015;-55
2021/12/09 05:01:10;;;;;;;6.55;4.22;;;26.00;85.60;;;;;;4984367;28;20242;-58
2021/12/09 05:03:37;;;;;;;5.32;4.40;;;26.00;85.60;;;;;;4983900;28;20042;-55
2021/12/09 05:06:04;;;;;;;6.72;4.30;;;26.00;85.70;;;;;;4984153;28;20034;-50
2021/12/09 05:08:32;;;;;;;6.10;4.38;;;26.00;85.80;;;;;;4984114;28;20219;-51
2021/12/09 05:11:13;;;;;;;8.02;4.18;;;25.90;85.80;;;;;;4984363;28;20246;-47
2021/12/09 05:13:40;;;;;;;7.47;4.53;;;25.90;85.90;;;;;;4984004;28;20030;-50
2021/12/09 05:16:10;;;;;;;8.63;4.57;;;25.90;86.00;;;;;;4984180;28;20037;-43
2021/12/09 05:18:38;;;;;;;7.57;4.10;;;25.90;86.10;;;;;;4983799;28;20073;-43
2021/12/09 05:21:07;;;;;;;5.68;4.20;;;25.90;85.90;;;;;;4984251;28;20076;-43
2021/12/09 05:23:35;;;;;;;7.15;4.22;;;25.90;85.70;;;;;;4983869;28;20030;-43
2021/12/09 05:26:02;;;;;;;9.57;3.95;;;25.90;85.50;;;;;;4983954;28;20038;-50
2021/12/09 05:28:33;;;;;;;9.73;4.20;;;25.90;85.40;;;;;;4983760;28;20011;-50
2021/12/09 05:33:46;;;;;;;7.13;4.28;;;25.90;85.40;;;;;;4983664;28;20060;-57
2021/12/09 05:36:13;;;;;;;5.05;4.05;;;25.80;85.20;;;;;;4983537;28;20034;-49
2021/12/09 05:38:40;;;;;;;7.95;4.47;;;25.80;85.10;;;;;;4983339;28;20338;-52
2021/12/09 05:41:07;;;;;;;8.52;4.40;;;25.80;85.00;;;;;;4983798;28;20031;-48
2021/12/09 05:43:34;;;;;;;8.20;4.28;;;25.80;85.10;;;;;;4983449;28;20180;-51
2021/12/09 05:46:00;;;;;;;7.70;4.63;;;25.80;85.20;;;;;;4983555;28;20037;-47
2021/12/09 05:48:27;;;;;;;6.13;3.97;;;25.80;85.20;;;;;;4983349;28;20084;-51
2021/12/09 05:50:54;;;;;;;9.18;4.53;;;25.80;85.10;;;;;;4983685;28;20342;-46
2021/12/09 05:53:20;;;;;;;9.27;4.15;;;25.80;85.10;;;;;;4983169;28;20038;-45
2021/12/09 05:55:47;;;;;;;5.75;4.30;;;25.80;85.20;;;;;;4983510;28;20026;-43
2021/12/09 05:58:20;;;;;;;5.40;4.55;;;25.80;85.10;;;;;;4983194;28;20312;-53
2021/12/09 06:00:48;;;;;;;6.65;4.25;;;25.80;85.10;;;;;;4983523;28;20104;-49
2021/12/09 06:03:15;;;;;;;8.13;4.68;;;25.80;85.20;;;;;;4983216;28;20042;-51
2021/12/09 06:05:42;;;;;;;9.32;4.65;;;25.80;85.20;;;;;;4983219;28;20084;-56
2021/12/09 06:08:08;;;;;;;9.05;4.28;;;25.80;85.30;;;;;;4983003;28;20015;-44
2021/12/09 06:10:36;;;;;;;8.48;4.95;;;25.80;85.30;;;;;;4983186;28;20099;-46
2021/12/09 06:13:04;;;;;;;6.78;4.55;;;25.80;85.30;;;;;;4983109;28;20200;-46
2021/12/09 06:15:31;;;;;;;7.50;4.55;;;25.80;85.30;;;;;;4983037;28;20207;-44
2021/12/09 06:17:58;;;;;;;7.40;4.93;;;25.80;85.40;;;;;;4982934;28;20327;-50
2021/12/09 06:20:28;;;;;;;8.07;4.78;;;25.70;85.40;;;;;;4983001;28;20216;-49
2021/12/09 06:22:55;;;;;;;7.25;4.72;;;25.80;85.60;;;;;;4982686;28;20034;-51
2021/12/09 06:25:21;;;;;;;7.38;4.90;;;25.80;85.70;;;;;;4983080;28;20304;-56
2021/12/09 06:27:49;;;;;;;8.57;5.00;;;25.80;85.60;;;;;;4982773;28;20068;-55
2021/12/09 06:30:19;;;;;;;7.50;4.80;;;25.70;85.80;;;;;;4982768;28;20093;-54
2021/12/09 06:32:46;;;;;;;11.07;5.15;;;25.70;86.00;;;;;;4982708;28;20345;-50
2021/12/09 06:35:13;;;;;;;8.20;4.95;;;25.70;86.10;;;;;;4982789;28;20030;-49
2021/12/09 06:37:44;;;;;;;8.07;5.03;;;25.70;86.10;;;;;;4982564;28;20027;-47
2021/12/09 06:40:13;;;;;;;8.82;4.82;;;25.70;86.40;;;;;;4982848;28;20031;-56
2021/12/09 06:42:41;;;;;;;11.25;4.93;;;25.70;86.30;;;;;;4982687;28;20034;-45
2021/12/09 06:45:10;;;;;;;9.15;5.20;;;25.70;86.30;;;;;;4982792;28;20228;-48
2021/12/09 06:47:37;;;;;;;5.70;4.63;;;25.70;86.30;;;;;;4982566;28;20023;-45
2021/12/09 06:50:05;;;;;;;6.75;4.30;;;25.70;86.30;;;;;;4982743;28;20177;-51
2021/12/09 06:52:32;;;;;;;6.13;4.15;;;25.70;86.30;;;;;;4982462;28;20019;-50
2021/12/09 06:54:59;;;;;;;11.80;4.90;;;25.70;86.30;;;;;;4982458;28;20316;-49
2021/12/09 06:57:27;;;;;;;10.95;4.75;;;25.70;86.30;;;;;;4982292;28;20029;-54
2021/12/09 06:59:53;;;;;;;8.88;4.55;;;25.70;86.40;;;;;;4982317;28;20062;-53
2021/12/09 07:02:20;;;;;;;7.97;4.55;;;25.70;86.30;;;;;;4982338;28;20033;-56
2021/12/09 07:04:46;;;;;;;8.45;4.50;;;25.70;86.40;;;;;;4982053;28;20319;-56
2021/12/09 07:07:13;;;;;;;9.48;4.70;;;25.70;86.40;;;;;;4982437;28;20346;-51
2021/12/09 07:09:41;;;;;;;9.32;4.90;;;25.60;86.40;;;;;;4982295;28;20019;-51
2021/12/09 07:12:08;;;;;;;9.63;5.00;;;25.70;86.70;;;;;;4981599;28;20042;-52
2021/12/09 07:14:35;;;;;;;6.80;4.70;;;25.70;86.80;;;;;;4982193;28;20283;-49
2021/12/09 07:17:01;;;;;;;9.00;4.68;;;25.70;86.60;;;;;;4982190;28;20029;-48
2021/12/09 07:19:28;;;;;;;9.80;4.75;;;25.70;86.80;;;;;;4982084;28;20078;-53
2021/12/09 07:21:55;;;;;;;10.30;4.75;;;25.70;86.80;;;;;;4981868;28;20034;-42
2021/12/09 07:24:21;;;;;;;9.70;4.43;;;25.60;86.90;;;;;;4982050;28;20319;-46
2021/12/09 07:26:48;;;;;;;7.72;4.60;;;25.70;87.00;;;;;;4982503;28;20027;-51
2021/12/09 07:29:14;;;;;;;7.05;4.53;;;25.60;87.10;;;;;;4981834;28;20030;-50
2021/12/09 07:31:41;;;;;;;9.15;4.90;;;25.60;87.30;;;;;;4982360;28;20068;-53
2021/12/09 07:34:08;;;;;;;8.23;4.97;;;25.60;87.20;;;;;;4981939;28;20022;-56
2021/12/09 07:36:34;;;;;;;7.85;4.75;;;25.70;87.40;;;;;;4982217;28;20316;-56
2021/12/09 07:39:01;;;;;;;9.50;5.10;;;25.60;87.50;;;;;;4981890;28;20045;-53
2021/12/09 07:41:27;;;;;;;8.07;4.93;;;25.60;87.80;;;;;;4982274;28;20030;-56
2021/12/09 07:43:54;;;;;;;6.90;4.85;;;25.60;87.80;;;;;;4981634;28;20023;-49
2021/12/09 07:46:21;;;;;;;7.47;4.85;;;25.60;87.90;;;;;;4982402;28;20067;-50
2021/12/09 07:48:47;;;;;;;7.22;5.28;;;25.60;88.00;;;;;;4981709;28;20349;-43
2021/12/09 07:51:14;;;;;;;9.23;5.47;;;25.60;88.00;;;;;;4982008;28;20306;-43
2021/12/09 07:53:40;;;;;;;10.90;5.50;;;25.60;88.20;;;;;;4981692;28;20039;-47
2021/12/09 07:56:07;;;;;;;8.98;5.35;;;25.60;88.10;;;;;;4982053;28;20034;-45
2021/12/09 07:58:35;;;;;;;9.98;5.82;;;25.60;88.20;;;;;;4981466;28;20046;-45
2021/12/09 08:01:01;;;;;;;8.77;5.70;;;25.60;88.40;;;;;;4981930;28;20041;-53
2021/12/09 08:03:28;;;;;;;11.63;5.47;;;25.60;88.20;;;;;;4981459;28;20043;-52
2021/12/09 08:05:55;;;;;;;8.43;5.18;;;25.60;88.30;;;;;;4981246;28;20038;-44
2021/12/09 08:08:21;;;;;;;9.80;5.57;;;25.60;88.00;;;;;;4981525;28;20026;-52
2021/12/09 08:10:48;;;;;;;7.50;5.38;;;25.60;88.10;;;;;;4981754;28;20023;-50
2021/12/09 08:13:14;;;;;;;8.52;5.72;;;25.70;88.20;;;;;;4981306;28;20026;-49
2021/12/09 08:15:48;;;;;;;11.57;5.47;;;25.70;88.20;;;;;;4981891;28;20034;-44
2021/12/09 08:20:51;;;;;;;9.05;5.20;;;25.70;87.80;;;;;;4981512;28;20034;-51
2021/12/09 08:23:17;;;;;;;10.13;5.40;;;25.70;87.80;;;;;;4981397;28;20053;-45
2021/12/09 08:25:45;;;;;;;7.95;5.32;;;25.70;87.70;;;;;;4984732;28;20077;-44
2021/12/09 08:28:12;;;;;;;7.93;4.75;;;25.70;87.90;;;;;;4984635;28;20372;-50
2021/12/09 08:30:40;;;;;;;9.20;4.75;;;25.70;87.70;;;;;;4984825;28;20035;-46
2021/12/09 08:33:08;;;;;;;8.32;5.20;;;25.70;87.60;;;;;;4984691;28;20018;-47
2021/12/09 08:35:35;;;;;;;7.22;4.90;;;25.70;87.50;;;;;;4984633;28;20031;-54
2021/12/09 08:38:04;;;;;;;8.43;5.00;;;25.70;87.40;;;;;;4984465;28;20027;-52
2021/12/09 08:40:31;;;;;;;6.25;5.07;;;25.70;87.50;;;;;;4984674;28;20026;-48
2021/12/09 08:42:58;;;;;;;9.55;5.07;;;25.70;87.50;;;;;;4984430;28;20030;-50
2021/12/09 08:45:25;;;;;;;8.85;5.00;;;25.70;87.50;;;;;;4984472;28;20276;-45
2021/12/09 08:47:51;;;;;;;11.15;5.93;;;25.70;87.40;;;;;;4984246;28;20027;-47
2021/12/09 08:50:22;;;;;;;9.98;5.43;;;25.70;87.40;;;;;;4984396;28;20231;-45
2021/12/09 08:52:51;;;;;;;8.35;5.07;;;25.70;87.50;;;;;;4984260;28;20021;-46
2021/12/09 08:55:19;;;;;;;7.43;4.97;;;25.70;87.50;;;;;;4984454;28;20038;-52
2021/12/09 08:57:48;;;;;;;6.38;5.28;;;25.70;87.60;;;;;;4984336;28;20337;-48
2021/12/09 09:00:17;;;;;;;9.27;5.22;;;25.70;87.70;;;;;;4984464;28;20069;-48
2021/12/09 09:02:45;;;;;;;7.95;5.05;;;25.70;87.80;;;;;;4983844;28;20019;-48
2021/12/09 09:05:13;;;;;;;10.10;5.57;;;25.70;87.80;;;;;;4984364;28;20065;-49
2021/12/09 09:07:45;;;;;;;11.25;5.80;;;25.70;87.90;;;;;;4984130;28;20019;-50
2021/12/09 09:10:14;;;;;;;9.32;5.63;;;25.70;87.90;;;;;;4984030;28;20058;-50
2021/12/09 09:12:41;;;;;;;9.57;5.45;;;25.70;87.90;;;;;;4983934;28;20068;-56
2021/12/09 09:15:11;;;;;;;9.43;5.55;;;25.70;88.00;;;;;;4984003;28;20098;-47
2021/12/09 09:17:37;;;;;;;8.07;5.35;;;25.70;87.90;;;;;;4983787;28;20052;-52
2021/12/09 09:20:07;;;;;;;8.07;5.15;;;25.70;87.90;;;;;;4984062;28;20103;-46
2021/12/09 09:22:34;;;;;;;7.30;5.35;;;25.70;87.80;;;;;;4983828;28;20049;-47
2021/12/09 09:25:01;;;;;;;13.40;5.75;;;25.70;87.90;;;;;;4983664;28;20030;-45
2021/12/09 09:27:28;;;;;;;6.18;5.38;;;25.70;87.80;;;;;;4983758;28;20025;-52
2021/12/09 09:29:54;;;;;;;7.82;4.97;;;25.70;87.70;;;;;;4983759;28;20090;-52
2021/12/09 09:32:21;;;;;;;9.07;5.25;;;25.70;87.70;;;;;;4983571;28;20011;-51
2021/12/09 09:34:47;;;;;;;8.38;4.80;;;25.70;87.70;;;;;;4983432;28;20031;-44
2021/12/09 09:37:14;;;;;;;10.48;5.15;;;25.70;87.60;;;;;;4983604;28;20029;-44
2021/12/09 09:39:43;;;;;;;9.88;4.80;;;25.70;87.50;;;;;;4983302;28;20119;-49
2021/12/09 09:44:48;;;;;;;9.00;5.35;;;25.70;87.50;;;;;;4983334;28;20049;-51
2021/12/09 09:47:16;;;;;;;11.77;5.45;;;25.70;87.60;;;;;;4983435;28;20052;-47
2021/12/09 09:49:43;;;;;;;6.60;4.75;;;25.70;87.40;;;;;;4983312;28;20212;-52
2021/12/09 09:52:11;;;;;;;8.60;5.30;;;25.70;87.50;;;;;;4983170;28;20137;-51
2021/12/09 09:54:39;;;;;;;8.10;4.57;;;25.70;87.50;;;;;;4983202;28;20250;-46
2021/12/09 09:57:08;;;;;;;9.13;5.05;;;25.70;87.40;;;;;;4983348;28;20023;-43
2021/12/09 09:59:36;;;;;;;6.97;4.80;;;25.70;87.40;;;;;;4983039;28;20026;-45
2021/12/09 10:02:04;;;;;;;6.47;4.55;;;25.70;87.30;;;;;;4983114;28;20019;-46
2021/12/09 10:04:43;;;;;;;6.28;4.85;;;25.70;87.30;;;;;;4983003;28;20046;-44
2021/12/09 10:07:12;;;;;;;10.02;5.10;;;25.70;87.40;;;;;;4983012;28;20266;-41
2021/12/09 10:09:40;;;;;;;9.57;5.05;;;25.80;87.60;;;;;;4983037;28;20015;-42
2021/12/09 10:12:08;;;;;;;13.27;5.55;;;25.80;87.70;;;;;;4983065;28;20023;-47
2021/12/09 10:14:36;;;;;;;6.95;5.18;;;25.80;88.00;;;;;;4982976;28;20037;-48
2021/12/09 10:17:13;;;;;;;10.25;5.18;;;25.70;87.90;;;;;;4982946;28;20038;-50
2021/12/09 10:20:02;;;;;;;11.57;5.05;;;25.80;88.30;;;;;;4982810;28;20026;-50
2021/12/09 10:22:34;;;;;;;9.00;5.20;;;25.80;88.30;;;;;;4982620;28;20035;-51
2021/12/09 10:25:14;;;;;;;7.80;5.35;;;25.80;88.50;;;;;;4982883;28;20034;-49
2021/12/09 10:27:45;;;;;;;9.07;5.20;;;25.80;88.50;;;;;;4982866;28;20034;-50
2021/12/09 10:30:18;;;;;;;8.27;5.20;;;25.80;88.50;;;;;;4982715;28;20046;-52
2021/12/09 10:32:46;;;;;;;9.35;5.50;;;25.80;88.50;;;;;;4982707;28;20319;-52
2021/12/09 10:35:18;;;;;;;7.45;5.47;;;25.80;88.50;;;;;;4982908;28;20030;-52
2021/12/09 10:37:50;;;;;;;8.55;5.18;;;25.80;88.60;;;;;;4982759;28;20049;-45
2021/12/09 10:40:25;;;;;;;9.15;5.05;;;25.80;88.40;;;;;;4982888;28;20034;-45
2021/12/09 10:42:55;;;;;;;10.02;4.93;;;25.70;88.30;;;;;;4982401;28;20041;-47
2021/12/09 10:45:28;;;;;;;6.82;4.93;;;25.70;88.40;;;;;;4982695;28;20049;-51
2021/12/09 10:48:04;;;;;;;11.13;5.38;;;25.70;88.40;;;;;;4981686;28;20023;-49
2021/12/09 10:50:48;;;;;;;9.02;5.60;;;25.70;88.50;;;;;;4982918;28;20031;-47
2021/12/09 10:55:54;;;;;;;12.10;5.80;;;25.70;88.80;;;;;;4982705;28;20238;-46
2021/12/09 10:58:30;;;;;;;12.32;6.07;;;25.70;88.70;;;;;;4982477;28;20030;-45
2021/12/09 11:01:20;;;;;;;12.07;6.40;;;25.70;88.80;;;;;;4982492;28;20027;-51
2021/12/09 11:03:55;;;;;;;9.48;6.22;;;25.80;89.00;;;;;;4977216;28;20335;-42
2021/12/09 11:06:32;;;;;;;9.98;5.72;;;25.80;89.00;;;;;;4982555;28;20066;-43
2021/12/09 11:09:01;;;;;;;10.05;6.47;;;25.80;89.10;;;;;;4982281;28;20022;-47
2021/12/09 11:11:32;;;;;;;13.63;6.25;;;25.70;89.10;;;;;;4982751;28;20113;-50
2021/12/09 11:14:08;;;;;;;13.15;6.60;;;25.80;89.20;;;;;;4982326;28;20023;-43
2021/12/09 11:16:45;;;;;;;10.32;6.10;;;25.80;89.30;;;;;;4980865;28;20028;-45
2021/12/09 11:19:23;;;;;;;14.48;6.65;;;25.80;89.40;;;;;;4978252;28;20030;-46
2021/12/09 11:21:56;;;;;;;15.20;6.03;;;25.80;89.60;;;;;;4981953;28;20022;-46
2021/12/09 11:24:27;;;;;;;15.30;7.00;;;25.80;89.80;;;;;;4982021;28;20023;-45
2021/12/09 11:27:01;;;;;;;11.85;6.47;;;25.70;90.00;;;;;;4981821;28;20046;-51
2021/12/09 11:29:38;;;;;;;15.52;7.18;;;25.70;90.00;;;;;;4981617;28;20023;-51
2021/12/09 11:32:17;;;;;;;14.40;7.07;;;25.70;90.00;;;;;;4982382;28;20054;-43
2021/12/09 11:35:03;;;;;;;12.98;6.70;;;25.70;90.00;;;;;;4981281;28;20022;-51
2021/12/09 11:37:40;;;;;;;11.35;7.20;;;25.70;90.00;;;;;;4976257;28;20029;-51
2021/12/09 11:40:07;;;;;;;15.98;7.40;;;25.70;90.00;;;;;;4981615;28;20267;-51
2021/12/09 11:42:59;;;;;;;12.40;7.32;;;25.70;90.10;;;;;;4980055;28;20018;-46
2021/12/09 11:45:44;;;;;;;12.95;7.70;;;25.70;90.00;;;;;;4980159;28;20074;-47
2021/12/09 11:48:12;;;;;;;11.73;7.95;;;25.70;90.00;;;;;;4979608;28;20023;-46
2021/12/09 11:50:50;;;;;;;15.32;7.75;;;25.80;90.10;;;;;;4966732;28;20027;-52
2021/12/09 11:53:21;;;;;;;16.05;7.60;;;25.80;90.10;;;;;;4979934;28;20018;-51
2021/12/09 11:56:23;;;;;;;13.20;8.40;;;25.80;90.10;;;;;;4980784;28;20026;-54
2021/12/09 11:58:54;;;;;;;15.77;8.38;;;25.80;90.10;;;;;;4980807;28;20037;-50
2021/12/09 12:15:27;;;;;;;11.90;7.65;;;25.90;90.00;;;;;;4978329;28;20026;-44
2021/12/09 12:27:20;;;;;;;16.73;9.35;;;26.00;90.20;;;;;;4985028;28;20033;-48
2021/12/09 12:35:30;;;;;;;11.50;8.00;;;26.00;90.40;;;;;;4984618;28;20023;-50
2021/12/09 12:38:11;;;;;;;13.70;8.50;;;26.00;90.40;;;;;;4984368;28;20025;-46
2021/12/09 12:40:40;;;;;;;11.38;7.47;;;26.00;90.50;;;;;;4984365;28;20035;-47
2021/12/09 12:43:15;;;;;;;14.25;8.23;;;26.00;90.40;;;;;;4984255;28;20022;-45
2021/12/09 12:51:33;;;;;;;10.65;7.43;;;26.10;90.50;;;;;;4984551;28;20338;-45
2021/12/09 12:54:27;;;;;;;12.82;8.02;;;26.10;90.50;;;;;;4984111;28;20018;-49
2021/12/09 12:57:00;;;;;;;12.77;8.07;;;26.10;90.70;;;;;;4984388;28;20027;-48
2021/12/09 12:59:31;;;;;;;11.25;8.13;;;26.10;90.90;;;;;;4984068;28;20091;-48
2021/12/09 13:02:06;;;;;;;12.13;7.35;;;26.10;90.90;;;;;;4984134;28;20042;-51
2021/12/09 13:05:01;;;;;;;9.88;7.78;;;26.20;90.90;;;;;;4983955;28;20051;-49
2021/12/09 13:13:50;;;;;;;11.30;7.30;;;26.20;90.90;;;;;;4983867;28;20030;-44
2021/12/09 13:16:22;;;;;;;11.43;7.10;;;26.20;90.80;;;;;;4985996;28;20045;-49
2021/12/09 13:21:46;;;;;;;12.02;7.32;;;26.20;90.80;;;;;;4984190;28;20086;-44
2021/12/09 13:25:05;;;;;;;14.70;7.63;;;26.30;90.80;;;;;;4983739;28;20212;-47
2021/12/09 13:27:28;;;;;;;11.02;7.55;;;26.30;90.80;;;;;;4991292;28;20031;-44
2021/12/09 13:30:19;;;;;;;10.68;7.28;;;26.30;90.70;;;;;;4983708;28;20034;-46
2021/12/09 13:33:03;;;;;;;12.35;7.25;;;26.30;90.80;;;;;;4983622;28;20026;-46
2021/12/09 13:55:15;;;;;;;15.77;7.43;;;26.50;90.20;;;;;;4983305;28;20092;-48
2021/12/09 13:57:47;;;;;;;12.25;7.55;;;26.50;90.10;;;;;;4983073;28;20022;-48
2021/12/09 14:00:30;;;;;;;;;;;26.50;90.10;;;;;;4983852;28;20027;-52
2021/12/09 14:03:09;;;;;;;9.93;6.97;;;26.60;90.10;;;;;;4982812;28;19906;-47
2021/12/09 14:05:39;;;;;;;11.05;6.78;;;26.60;89.90;;;;;;4983336;28;20084;-49
2021/12/09 14:08:08;;;;;;;11.85;7.80;;;26.60;90.10;;;;;;4983001;28;20022;-49